createdAt,value
2022-09-23T07:02:10.923Z,101025.88
2022-09-23T07:05:15.656Z,101027.59
2022-09-23T07:08:18.709Z,101024.78
2022-09-23T07:11:23.463Z,101020.37
2022-09-23T07:14:25.817Z,101024.50
2022-09-23T07:17:28.405Z,101025.66
2022-09-23T07:20:32.999Z,101033.09
2022-09-23T07:23:37.181Z,101025.59
2022-09-23T07:26:44.921Z,101028.03
2022-09-23T07:29:49.114Z,101033.44
2022-09-23T07:32:52.174Z,101037.75
2022-09-23T07:35:55.101Z,101029.09
2022-09-23T07:39:02.716Z,101019.94
2022-09-23T07:42:06.187Z,101022.31
2022-09-23T07:45:09.211Z,101031.31
2022-09-23T07:48:12.083Z,101027.81
2022-09-23T07:51:23.553Z,101015.53
2022-09-23T07:54:29.724Z,101007.94
2022-09-23T07:57:35.262Z,101021.13
2022-09-23T08:00:37.892Z,101025.34
2022-09-23T08:03:40.484Z,101027.03
2022-09-23T08:06:43.670Z,101029.13
2022-09-23T08:09:46.366Z,101022.28
2022-09-23T08:12:49.171Z,101024.16
2022-09-23T08:15:55.547Z,101026.63
2022-09-23T08:18:57.993Z,101019.53
2022-09-23T08:22:01.549Z,101017.88
2022-09-23T08:25:05.358Z,101023.28
2022-09-23T08:28:09.686Z,101016.59
2022-09-23T08:31:14.011Z,101001.00
2022-09-23T08:34:17.477Z,101005.97
2022-09-23T08:37:20.087Z,101018.25
2022-09-23T08:40:22.714Z,101007.19
2022-09-23T08:43:30.064Z,101016.09
2022-09-23T08:46:36.375Z,101008.97
2022-09-23T08:49:45.845Z,101006.87
2022-09-23T08:52:58.733Z,101005.22
2022-09-23T08:56:07.292Z,100990.78
2022-09-23T08:59:14.775Z,100999.22
2022-09-23T09:02:19.371Z,100991.97
2022-09-23T09:05:26.932Z,101003.75
2022-09-23T09:08:35.725Z,100988.28
2022-09-23T09:11:46.644Z,101003.22
2022-09-23T09:15:05.954Z,100989.84
2022-09-23T09:18:21.376Z,101009.13
2022-09-23T09:21:27.209Z,100991.50
2022-09-23T09:24:34.701Z,100966.00
2022-09-23T09:27:40.980Z,100984.78
2022-09-23T09:30:49.041Z,100986.72
2022-09-23T09:33:57.904Z,100986.81
2022-09-23T09:37:07.221Z,100969.16
2022-09-23T09:40:12.905Z,100985.78
2022-09-23T09:43:23.567Z,100981.53
2022-09-23T09:46:56.720Z,100974.28
2022-09-23T09:50:07.008Z,100972.81
2022-09-23T09:53:23.842Z,100964.47
2022-09-23T09:56:33.586Z,100939.41
2022-09-23T09:59:35.923Z,100951.72
2022-09-23T10:02:38.674Z,100947.31
2022-09-23T10:05:44.885Z,100948.03
2022-09-23T10:09:07.355Z,100947.44
2022-09-23T10:12:18.660Z,100941.84
2022-09-23T10:15:44.474Z,100944.75
2022-09-23T10:18:47.534Z,100933.69
2022-09-23T10:22:39.675Z,100941.50
2022-09-23T10:25:42.378Z,100942.72
2022-09-23T10:28:50.547Z,100947.59
2022-09-23T10:32:14.500Z,100943.91
2022-09-23T10:35:22.530Z,100940.78
2022-09-23T10:38:25.229Z,100936.00
2022-09-23T10:41:50.655Z,100929.81
2022-09-23T10:45:17.878Z,100912.88
2022-09-23T10:48:36.574Z,100926.00
2022-09-23T10:52:03.382Z,100928.84
2022-09-23T10:55:11.622Z,100920.59
2022-09-23T10:58:30.089Z,100905.78
2022-09-23T11:02:02.469Z,100901.25
2022-09-23T11:05:19.450Z,100922.00
2022-09-23T11:08:33.747Z,100922.53
2022-09-23T11:12:12.300Z,100924.31
2022-09-23T11:15:31.167Z,100918.59
2022-09-23T11:18:36.779Z,100906.41
